Lone Jack, Missouri
Current Conditions -  °F | °C
As of 9:53 AM on Sunday 25 Jan 2015 (Local Time) from KLXT Reporting Station
Overcast Overcast  
Wind Chill: 27°   Ceiling: 1300
Heat Index: 37°   Visibility: 10mi
Dew Point: 33°   Wind: 18mph
Humidity: 86%   Direction: 320°NW
Pressure: 29.74"   Gusts: 26mph
Location:  38.87°N, 94.17°W
Report Text: KLXT 251553Z AUTO 32016G23KT 10SM OVC013 03/01 A2974 RMK AO2 PK WND 30028/1506 SNE05 SLP075 P0000 T00280006
Loading
Personal Weather Stations






























Interactive Weather Map New forecast layout! Learn more

10-Day Weather Forecast

Advertisements
Track Severe Weather on mobile